sensor_id;sensor_type;location;lat;lon;timestamp;P1;durP1;ratioP1;P2;durP2;ratioP2
52188;SDS011;38162;45.926;13.608;2022-12-18T00:00:03;5.50;;;4.60;;
52188;SDS011;38162;45.926;13.608;2022-12-18T00:02:29;6.70;;;4.90;;
52188;SDS011;38162;45.926;13.608;2022-12-18T00:05:01;6.17;;;4.60;;
52188;SDS011;38162;45.926;13.608;2022-12-18T00:07:33;6.33;;;4.67;;
52188;SDS011;38162;45.926;13.608;2022-12-18T00:10:02;6.63;;;4.85;;
52188;SDS011;38162;45.926;13.608;2022-12-18T00:12:29;7.10;;;4.93;;
52188;SDS011;38162;45.926;13.608;2022-12-18T00:14:55;6.60;;;4.50;;
52188;SDS011;38162;45.926;13.608;2022-12-18T00:17:24;7.50;;;5.23;;
52188;SDS011;38162;45.926;13.608;2022-12-18T00:19:51;7.17;;;4.80;;
52188;SDS011;38162;45.926;13.608;2022-12-18T00:22:17;7.70;;;5.30;;
52188;SDS011;38162;45.926;13.608;2022-12-18T00:24:46;6.47;;;5.03;;
52188;SDS011;38162;45.926;13.608;2022-12-18T00:27:12;6.63;;;4.67;;
52188;SDS011;38162;45.926;13.608;2022-12-18T00:29:38;7.57;;;5.50;;
52188;SDS011;38162;45.926;13.608;2022-12-18T00:32:04;6.80;;;5.10;;
52188;SDS011;38162;45.926;13.608;2022-12-18T00:34:30;6.33;;;4.73;;
52188;SDS011;38162;45.926;13.608;2022-12-18T00:36:57;7.30;;;5.30;;
52188;SDS011;38162;45.926;13.608;2022-12-18T00:39:23;6.80;;;4.97;;
52188;SDS011;38162;45.926;13.608;2022-12-18T00:41:49;7.10;;;4.80;;
52188;SDS011;38162;45.926;13.608;2022-12-18T00:44:34;5.97;;;4.67;;
52188;SDS011;38162;45.926;13.608;2022-12-18T00:47:00;7.27;;;4.57;;
52188;SDS011;38162;45.926;13.608;2022-12-18T00:49:26;7.30;;;4.93;;
52188;SDS011;38162;45.926;13.608;2022-12-18T00:51:52;7.63;;;5.60;;
52188;SDS011;38162;45.926;13.608;2022-12-18T00:54:18;7.47;;;5.27;;
52188;SDS011;38162;45.926;13.608;2022-12-18T00:56:44;6.77;;;4.80;;
52188;SDS011;38162;45.926;13.608;2022-12-18T00:59:10;6.80;;;4.57;;
52188;SDS011;38162;45.926;13.608;2022-12-18T01:01:36;6.93;;;4.93;;
52188;SDS011;38162;45.926;13.608;2022-12-18T01:04:02;7.63;;;5.00;;
52188;SDS011;38162;45.926;13.608;2022-12-18T01:06:29;6.77;;;4.97;;
52188;SDS011;38162;45.926;13.608;2022-12-18T01:08:56;6.87;;;4.80;;
52188;SDS011;38162;45.926;13.608;2022-12-18T01:11:22;8.20;;;5.27;;
52188;SDS011;38162;45.926;13.608;2022-12-18T01:13:48;6.53;;;4.87;;
52188;SDS011;38162;45.926;13.608;2022-12-18T01:16:16;9.20;;;5.43;;
52188;SDS011;38162;45.926;13.608;2022-12-18T01:18:42;8.90;;;5.60;;
52188;SDS011;38162;45.926;13.608;2022-12-18T01:21:09;8.13;;;5.37;;
52188;SDS011;38162;45.926;13.608;2022-12-18T01:23:36;7.53;;;4.87;;
52188;SDS011;38162;45.926;13.608;2022-12-18T01:26:10;7.53;;;5.57;;
52188;SDS011;38162;45.926;13.608;2022-12-18T01:28:37;8.97;;;5.37;;
52188;SDS011;38162;45.926;13.608;2022-12-18T01:31:13;7.63;;;5.40;;
52188;SDS011;38162;45.926;13.608;2022-12-18T01:33:39;9.07;;;6.10;;
52188;SDS011;38162;45.926;13.608;2022-12-18T01:36:05;9.70;;;5.80;;
52188;SDS011;38162;45.926;13.608;2022-12-18T01:38:34;9.40;;;6.07;;
52188;SDS011;38162;45.926;13.608;2022-12-18T01:41:06;7.67;;;5.67;;
52188;SDS011;38162;45.926;13.608;2022-12-18T01:46:18;8.03;;;5.80;;
52188;SDS011;38162;45.926;13.608;2022-12-18T01:48:45;8.40;;;5.47;;
52188;SDS011;38162;45.926;13.608;2022-12-18T01:51:15;8.33;;;6.07;;
52188;SDS011;38162;45.926;13.608;2022-12-18T01:53:45;8.63;;;5.93;;
52188;SDS011;38162;45.926;13.608;2022-12-18T01:56:12;8.57;;;5.50;;
52188;SDS011;38162;45.926;13.608;2022-12-18T01:58:41;8.83;;;5.77;;
52188;SDS011;38162;45.926;13.608;2022-12-18T02:01:09;8.83;;;6.00;;
52188;SDS011;38162;45.926;13.608;2022-12-18T02:03:35;7.37;;;5.37;;
52188;SDS011;38162;45.926;13.608;2022-12-18T02:19:04;8.03;;;5.47;;
52188;SDS011;38162;45.926;13.608;2022-12-18T02:21:36;10.40;;;6.73;;
52188;SDS011;38162;45.926;13.608;2022-12-18T02:24:28;8.33;;;6.17;;
52188;SDS011;38162;45.926;13.608;2022-12-18T02:26:56;8.50;;;5.73;;
52188;SDS011;38162;45.926;13.608;2022-12-18T02:29:24;7.87;;;5.70;;
52188;SDS011;38162;45.926;13.608;2022-12-18T02:31:56;8.50;;;6.10;;
52188;SDS011;38162;45.926;13.608;2022-12-18T02:34:23;9.73;;;5.87;;
52188;SDS011;38162;45.926;13.608;2022-12-18T02:36:51;9.63;;;6.33;;
52188;SDS011;38162;45.926;13.608;2022-12-18T02:39:19;8.37;;;6.30;;
52188;SDS011;38162;45.926;13.608;2022-12-18T02:41:47;9.13;;;6.43;;
52188;SDS011;38162;45.926;13.608;2022-12-18T02:44:14;10.77;;;6.50;;
52188;SDS011;38162;45.926;13.608;2022-12-18T02:51:52;9.47;;;6.80;;
52188;SDS011;38162;45.926;13.608;2022-12-18T02:54:44;10.87;;;6.40;;
52188;SDS011;38162;45.926;13.608;2022-12-18T02:57:13;8.17;;;6.13;;
52188;SDS011;38162;45.926;13.608;2022-12-18T02:59:42;9.60;;;6.30;;
52188;SDS011;38162;45.926;13.608;2022-12-18T03:04:41;9.73;;;6.57;;
52188;SDS011;38162;45.926;13.608;2022-12-18T03:07:11;8.97;;;6.03;;
52188;SDS011;38162;45.926;13.608;2022-12-18T03:09:42;9.07;;;6.20;;
52188;SDS011;38162;45.926;13.608;2022-12-18T03:14:48;9.37;;;6.20;;
52188;SDS011;38162;45.926;13.608;2022-12-18T03:17:17;9.73;;;6.13;;
52188;SDS011;38162;45.926;13.608;2022-12-18T03:19:45;10.70;;;6.13;;
52188;SDS011;38162;45.926;13.608;2022-12-18T03:22:12;8.93;;;6.23;;
52188;SDS011;38162;45.926;13.608;2022-12-18T03:24:39;9.00;;;5.97;;
52188;SDS011;38162;45.926;13.608;2022-12-18T03:27:06;9.57;;;6.20;;
52188;SDS011;38162;45.926;13.608;2022-12-18T03:32:59;8.97;;;6.20;;
52188;SDS011;38162;45.926;13.608;2022-12-18T03:35:29;9.87;;;6.77;;
52188;SDS011;38162;45.926;13.608;2022-12-18T03:38:32;11.77;;;6.23;;
52188;SDS011;38162;45.926;13.608;2022-12-18T03:44:00;9.03;;;6.23;;
52188;SDS011;38162;45.926;13.608;2022-12-18T03:49:56;9.87;;;6.33;;
52188;SDS011;38162;45.926;13.608;2022-12-18T03:55:34;9.00;;;6.27;;
52188;SDS011;38162;45.926;13.608;2022-12-18T03:58:00;9.47;;;6.60;;
52188;SDS011;38162;45.926;13.608;2022-12-18T04:00:27;10.20;;;6.60;;
52188;SDS011;38162;45.926;13.608;2022-12-18T04:02:55;10.77;;;6.77;;
52188;SDS011;38162;45.926;13.608;2022-12-18T04:05:23;9.63;;;6.80;;
52188;SDS011;38162;45.926;13.608;2022-12-18T04:07:50;14.93;;;7.50;;
52188;SDS011;38162;45.926;13.608;2022-12-18T04:10:17;13.17;;;10.73;;
52188;SDS011;38162;45.926;13.608;2022-12-18T04:12:43;12.53;;;9.40;;
52188;SDS011;38162;45.926;13.608;2022-12-18T04:15:10;12.20;;;8.40;;
52188;SDS011;38162;45.926;13.608;2022-12-18T04:17:37;11.07;;;7.40;;
52188;SDS011;38162;45.926;13.608;2022-12-18T04:20:03;10.00;;;7.40;;
52188;SDS011;38162;45.926;13.608;2022-12-18T04:22:29;9.60;;;6.80;;
52188;SDS011;38162;45.926;13.608;2022-12-18T04:24:55;9.57;;;6.90;;
52188;SDS011;38162;45.926;13.608;2022-12-18T04:27:21;10.37;;;6.90;;
52188;SDS011;38162;45.926;13.608;2022-12-18T04:29:48;10.57;;;6.37;;
52188;SDS011;38162;45.926;13.608;2022-12-18T04:32:14;9.13;;;6.57;;
52188;SDS011;38162;45.926;13.608;2022-12-18T04:34:40;11.27;;;7.60;;
52188;SDS011;38162;45.926;13.608;2022-12-18T04:37:06;11.63;;;7.17;;
52188;SDS011;38162;45.926;13.608;2022-12-18T04:39:32;11.80;;;7.47;;
52188;SDS011;38162;45.926;13.608;2022-12-18T04:41:58;11.27;;;7.30;;
52188;SDS011;38162;45.926;13.608;2022-12-18T04:44:24;10.80;;;7.40;;
52188;SDS011;38162;45.926;13.608;2022-12-18T04:46:50;9.00;;;6.23;;
52188;SDS011;38162;45.926;13.608;2022-12-18T04:49:16;12.13;;;7.70;;
52188;SDS011;38162;45.926;13.608;2022-12-18T04:51:42;10.40;;;7.03;;
52188;SDS011;38162;45.926;13.608;2022-12-18T04:54:08;10.70;;;6.87;;
52188;SDS011;38162;45.926;13.608;2022-12-18T04:56:34;11.47;;;8.00;;
52188;SDS011;38162;45.926;13.608;2022-12-18T04:59:00;11.83;;;7.63;;
52188;SDS011;38162;45.926;13.608;2022-12-18T05:01:27;15.57;;;8.70;;
52188;SDS011;38162;45.926;13.608;2022-12-18T05:03:53;13.70;;;7.77;;
52188;SDS011;38162;45.926;13.608;2022-12-18T05:06:19;11.33;;;7.37;;
52188;SDS011;38162;45.926;13.608;2022-12-18T05:08:45;11.83;;;8.97;;
52188;SDS011;38162;45.926;13.608;2022-12-18T05:11:12;11.40;;;8.67;;
52188;SDS011;38162;45.926;13.608;2022-12-18T05:13:42;13.07;;;10.07;;
52188;SDS011;38162;45.926;13.608;2022-12-18T05:16:09;12.47;;;9.20;;
52188;SDS011;38162;45.926;13.608;2022-12-18T05:18:35;12.40;;;8.63;;
52188;SDS011;38162;45.926;13.608;2022-12-18T05:21:02;11.07;;;8.40;;
52188;SDS011;38162;45.926;13.608;2022-12-18T05:24:01;11.83;;;8.50;;
52188;SDS011;38162;45.926;13.608;2022-12-18T05:26:21;10.73;;;8.38;;
52188;SDS011;38162;45.926;13.608;2022-12-18T05:28:50;10.93;;;7.70;;
52188;SDS011;38162;45.926;13.608;2022-12-18T05:31:17;11.93;;;8.30;;
52188;SDS011;38162;45.926;13.608;2022-12-18T05:33:49;12.77;;;8.83;;
52188;SDS011;38162;45.926;13.608;2022-12-18T05:36:21;12.50;;;8.10;;
52188;SDS011;38162;45.926;13.608;2022-12-18T05:38:47;11.73;;;8.17;;
52188;SDS011;38162;45.926;13.608;2022-12-18T05:41:13;13.20;;;8.10;;
52188;SDS011;38162;45.926;13.608;2022-12-18T05:43:40;13.00;;;8.27;;
52188;SDS011;38162;45.926;13.608;2022-12-18T05:46:13;13.27;;;7.97;;
52188;SDS011;38162;45.926;13.608;2022-12-18T05:48:41;13.37;;;8.10;;
52188;SDS011;38162;45.926;13.608;2022-12-18T05:51:08;11.93;;;8.00;;
52188;SDS011;38162;45.926;13.608;2022-12-18T05:53:35;13.30;;;8.70;;
52188;SDS011;38162;45.926;13.608;2022-12-18T05:56:04;12.07;;;8.43;;
52188;SDS011;38162;45.926;13.608;2022-12-18T05:58:31;16.63;;;11.13;;
52188;SDS011;38162;45.926;13.608;2022-12-18T06:00:57;15.67;;;10.50;;
52188;SDS011;38162;45.926;13.608;2022-12-18T06:03:23;14.53;;;9.97;;
52188;SDS011;38162;45.926;13.608;2022-12-18T06:05:49;16.43;;;10.60;;
52188;SDS011;38162;45.926;13.608;2022-12-18T06:08:15;14.87;;;10.10;;
52188;SDS011;38162;45.926;13.608;2022-12-18T06:10:41;14.93;;;9.10;;
52188;SDS011;38162;45.926;13.608;2022-12-18T06:13:08;13.97;;;9.10;;
52188;SDS011;38162;45.926;13.608;2022-12-18T06:15:37;15.33;;;10.57;;
52188;SDS011;38162;45.926;13.608;2022-12-18T06:18:03;16.13;;;9.50;;
52188;SDS011;38162;45.926;13.608;2022-12-18T06:20:30;18.63;;;10.83;;
52188;SDS011;38162;45.926;13.608;2022-12-18T06:22:56;18.77;;;12.50;;
52188;SDS011;38162;45.926;13.608;2022-12-18T06:25:22;16.23;;;11.57;;
52188;SDS011;38162;45.926;13.608;2022-12-18T06:27:48;25.23;;;15.40;;
52188;SDS011;38162;45.926;13.608;2022-12-18T06:30:14;25.30;;;14.97;;
52188;SDS011;38162;45.926;13.608;2022-12-18T06:32:40;24.57;;;15.83;;
52188;SDS011;38162;45.926;13.608;2022-12-18T06:35:06;26.37;;;16.77;;
52188;SDS011;38162;45.926;13.608;2022-12-18T06:37:32;26.73;;;16.53;;
52188;SDS011;38162;45.926;13.608;2022-12-18T06:39:59;25.90;;;17.23;;
52188;SDS011;38162;45.926;13.608;2022-12-18T06:42:26;35.13;;;22.13;;
52188;SDS011;38162;45.926;13.608;2022-12-18T06:44:52;35.07;;;21.53;;
52188;SDS011;38162;45.926;13.608;2022-12-18T06:47:18;25.83;;;16.40;;
52188;SDS011;38162;45.926;13.608;2022-12-18T06:49:44;17.83;;;11.70;;
52188;SDS011;38162;45.926;13.608;2022-12-18T06:52:10;16.80;;;10.90;;
52188;SDS011;38162;45.926;13.608;2022-12-18T06:54:36;14.47;;;10.23;;
52188;SDS011;38162;45.926;13.608;2022-12-18T06:57:03;17.40;;;10.43;;
52188;SDS011;38162;45.926;13.608;2022-12-18T06:59:29;16.70;;;11.20;;
52188;SDS011;38162;45.926;13.608;2022-12-18T07:01:55;17.93;;;10.90;;
52188;SDS011;38162;45.926;13.608;2022-12-18T07:04:21;16.37;;;10.10;;
52188;SDS011;38162;45.926;13.608;2022-12-18T07:06:47;16.07;;;10.07;;
52188;SDS011;38162;45.926;13.608;2022-12-18T07:09:13;16.17;;;10.17;;
52188;SDS011;38162;45.926;13.608;2022-12-18T07:11:42;18.77;;;11.37;;
52188;SDS011;38162;45.926;13.608;2022-12-18T07:17:01;14.30;;;9.57;;
52188;SDS011;38162;45.926;13.608;2022-12-18T07:19:33;14.37;;;9.67;;
52188;SDS011;38162;45.926;13.608;2022-12-18T07:22:21;15.73;;;10.27;;
52188;SDS011;38162;45.926;13.608;2022-12-18T07:24:47;15.33;;;9.87;;
52188;SDS011;38162;45.926;13.608;2022-12-18T07:27:17;14.30;;;9.53;;
52188;SDS011;38162;45.926;13.608;2022-12-18T07:29:43;16.20;;;10.20;;
52188;SDS011;38162;45.926;13.608;2022-12-18T07:32:30;16.80;;;10.67;;
52188;SDS011;38162;45.926;13.608;2022-12-18T07:34:59;16.43;;;10.57;;
52188;SDS011;38162;45.926;13.608;2022-12-18T07:37:31;15.40;;;10.30;;
52188;SDS011;38162;45.926;13.608;2022-12-18T07:40:19;15.10;;;10.53;;
52188;SDS011;38162;45.926;13.608;2022-12-18T07:42:46;13.93;;;9.23;;
52188;SDS011;38162;45.926;13.608;2022-12-18T07:45:12;14.80;;;10.57;;
52188;SDS011;38162;45.926;13.608;2022-12-18T07:47:38;16.30;;;10.20;;
52188;SDS011;38162;45.926;13.608;2022-12-18T07:50:06;15.43;;;10.60;;
52188;SDS011;38162;45.926;13.608;2022-12-18T07:52:32;17.93;;;10.50;;
52188;SDS011;38162;45.926;13.608;2022-12-18T07:54:58;14.77;;;10.27;;
52188;SDS011;38162;45.926;13.608;2022-12-18T07:57:24;16.93;;;11.20;;
52188;SDS011;38162;45.926;13.608;2022-12-18T07:59:50;16.67;;;10.60;;
52188;SDS011;38162;45.926;13.608;2022-12-18T08:02:16;15.93;;;11.00;;
52188;SDS011;38162;45.926;13.608;2022-12-18T08:04:42;16.80;;;10.63;;
52188;SDS011;38162;45.926;13.608;2022-12-18T08:07:09;19.53;;;12.03;;
52188;SDS011;38162;45.926;13.608;2022-12-18T08:09:35;16.90;;;10.97;;
52188;SDS011;38162;45.926;13.608;2022-12-18T08:12:01;19.83;;;11.77;;
52188;SDS011;38162;45.926;13.608;2022-12-18T08:14:27;16.33;;;11.17;;
52188;SDS011;38162;45.926;13.608;2022-12-18T08:16:53;18.97;;;11.93;;
52188;SDS011;38162;45.926;13.608;2022-12-18T08:19:19;16.33;;;11.40;;
52188;SDS011;38162;45.926;13.608;2022-12-18T08:21:45;16.37;;;10.80;;
52188;SDS011;38162;45.926;13.608;2022-12-18T08:24:11;20.37;;;12.13;;
52188;SDS011;38162;45.926;13.608;2022-12-18T08:26:37;16.87;;;11.57;;
52188;SDS011;38162;45.926;13.608;2022-12-18T08:29:03;14.93;;;10.40;;
52188;SDS011;38162;45.926;13.608;2022-12-18T08:31:30;16.63;;;11.90;;
52188;SDS011;38162;45.926;13.608;2022-12-18T08:33:56;17.87;;;12.33;;
52188;SDS011;38162;45.926;13.608;2022-12-18T08:36:23;17.87;;;12.33;;
52188;SDS011;38162;45.926;13.608;2022-12-18T08:38:49;18.97;;;11.80;;
52188;SDS011;38162;45.926;13.608;2022-12-18T08:41:15;17.37;;;12.03;;
52188;SDS011;38162;45.926;13.608;2022-12-18T08:43:42;16.93;;;11.37;;
52188;SDS011;38162;45.926;13.608;2022-12-18T08:46:27;17.13;;;11.00;;
52188;SDS011;38162;45.926;13.608;2022-12-18T08:48:56;16.40;;;10.30;;
52188;SDS011;38162;45.926;13.608;2022-12-18T08:51:23;16.07;;;11.50;;
52188;SDS011;38162;45.926;13.608;2022-12-18T08:53:49;16.70;;;11.90;;
52188;SDS011;38162;45.926;13.608;2022-12-18T08:56:15;16.07;;;11.33;;
52188;SDS011;38162;45.926;13.608;2022-12-18T08:59:05;15.90;;;10.47;;
52188;SDS011;38162;45.926;13.608;2022-12-18T09:01:29;17.73;;;10.97;;
52188;SDS011;38162;45.926;13.608;2022-12-18T09:03:55;15.53;;;10.50;;
52188;SDS011;38162;45.926;13.608;2022-12-18T09:06:24;16.73;;;11.13;;
52188;SDS011;38162;45.926;13.608;2022-12-18T09:08:51;17.57;;;10.70;;
52188;SDS011;38162;45.926;13.608;2022-12-18T09:11:22;15.90;;;11.10;;
52188;SDS011;38162;45.926;13.608;2022-12-18T09:13:52;16.20;;;11.47;;
52188;SDS011;38162;45.926;13.608;2022-12-18T09:16:19;15.80;;;10.83;;
52188;SDS011;38162;45.926;13.608;2022-12-18T09:18:51;16.13;;;10.97;;
52188;SDS011;38162;45.926;13.608;2022-12-18T09:21:42;16.07;;;10.67;;
52188;SDS011;38162;45.926;13.608;2022-12-18T09:24:09;14.83;;;10.27;;
52188;SDS011;38162;45.926;13.608;2022-12-18T09:26:37;15.80;;;10.40;;
52188;SDS011;38162;45.926;13.608;2022-12-18T09:29:04;13.87;;;9.83;;
52188;SDS011;38162;45.926;13.608;2022-12-18T09:31:32;14.70;;;9.63;;
52188;SDS011;38162;45.926;13.608;2022-12-18T09:33:58;14.13;;;9.10;;
52188;SDS011;38162;45.926;13.608;2022-12-18T09:36:24;14.40;;;9.13;;
52188;SDS011;38162;45.926;13.608;2022-12-18T09:38:51;13.83;;;8.80;;
52188;SDS011;38162;45.926;13.608;2022-12-18T09:44:03;13.63;;;8.93;;
52188;SDS011;38162;45.926;13.608;2022-12-18T09:46:36;13.20;;;9.30;;
52188;SDS011;38162;45.926;13.608;2022-12-18T09:49:05;14.38;;;8.85;;
52188;SDS011;38162;45.926;13.608;2022-12-18T09:51:34;17.10;;;8.33;;
52188;SDS011;38162;45.926;13.608;2022-12-18T09:54:06;11.90;;;8.10;;
52188;SDS011;38162;45.926;13.608;2022-12-18T09:56:35;13.77;;;8.77;;
52188;SDS011;38162;45.926;13.608;2022-12-18T09:59:02;14.53;;;8.80;;
52188;SDS011;38162;45.926;13.608;2022-12-18T10:01:29;10.03;;;8.00;;
52188;SDS011;38162;45.926;13.608;2022-12-18T10:03:55;11.27;;;8.13;;
52188;SDS011;38162;45.926;13.608;2022-12-18T10:14:05;11.20;;;8.00;;
52188;SDS011;38162;45.926;13.608;2022-12-18T10:27:08;13.50;;;8.77;;
52188;SDS011;38162;45.926;13.608;2022-12-18T10:29:35;12.10;;;8.00;;
52188;SDS011;38162;45.926;13.608;2022-12-18T10:32:01;12.03;;;8.53;;
52188;SDS011;38162;45.926;13.608;2022-12-18T10:34:27;13.07;;;8.43;;
52188;SDS011;38162;45.926;13.608;2022-12-18T10:36:53;12.97;;;8.27;;
52188;SDS011;38162;45.926;13.608;2022-12-18T10:39:20;13.77;;;8.33;;
52188;SDS011;38162;45.926;13.608;2022-12-18T10:42:04;12.10;;;8.83;;
52188;SDS011;38162;45.926;13.608;2022-12-18T10:44:34;12.07;;;8.10;;
52188;SDS011;38162;45.926;13.608;2022-12-18T10:47:04;11.63;;;8.17;;
52188;SDS011;38162;45.926;13.608;2022-12-18T10:49:32;11.83;;;8.50;;
52188;SDS011;38162;45.926;13.608;2022-12-18T11:04:50;11.13;;;8.20;;
52188;SDS011;38162;45.926;13.608;2022-12-18T11:07:17;12.47;;;9.10;;
52188;SDS011;38162;45.926;13.608;2022-12-18T11:09:43;15.77;;;8.70;;
52188;SDS011;38162;45.926;13.608;2022-12-18T11:17:17;13.57;;;9.07;;
52188;SDS011;38162;45.926;13.608;2022-12-18T11:19:44;14.77;;;9.37;;
52188;SDS011;38162;45.926;13.608;2022-12-18T11:22:20;13.20;;;9.50;;
52188;SDS011;38162;45.926;13.608;2022-12-18T11:24:52;14.20;;;9.70;;
52188;SDS011;38162;45.926;13.608;2022-12-18T11:27:18;14.13;;;10.20;;
52188;SDS011;38162;45.926;13.608;2022-12-18T11:29:45;13.77;;;9.53;;
52188;SDS011;38162;45.926;13.608;2022-12-18T11:34:46;15.60;;;9.47;;
52188;SDS011;38162;45.926;13.608;2022-12-18T11:37:14;12.87;;;9.07;;
52188;SDS011;38162;45.926;13.608;2022-12-18T11:39:55;12.63;;;9.13;;
52188;SDS011;38162;45.926;13.608;2022-12-18T11:42:45;14.00;;;8.90;;
52188;SDS011;38162;45.926;13.608;2022-12-18T11:47:39;12.00;;;8.47;;
52188;SDS011;38162;45.926;13.608;2022-12-18T11:50:11;12.97;;;8.67;;
52188;SDS011;38162;45.926;13.608;2022-12-18T11:52:39;12.40;;;8.83;;
52188;SDS011;38162;45.926;13.608;2022-12-18T11:55:10;12.73;;;9.23;;
52188;SDS011;38162;45.926;13.608;2022-12-18T11:58:01;18.30;;;9.45;;
52188;SDS011;38162;45.926;13.608;2022-12-18T12:00:23;11.33;;;8.00;;
52188;SDS011;38162;45.926;13.608;2022-12-18T12:05:28;12.53;;;8.77;;
52188;SDS011;38162;45.926;13.608;2022-12-18T12:21:22;11.87;;;7.90;;
52188;SDS011;38162;45.926;13.608;2022-12-18T12:33:44;12.07;;;7.83;;
52188;SDS011;38162;45.926;13.608;2022-12-18T12:39:00;12.10;;;8.30;;
52188;SDS011;38162;45.926;13.608;2022-12-18T12:41:30;12.50;;;8.30;;
52188;SDS011;38162;45.926;13.608;2022-12-18T12:44:16;11.57;;;8.50;;
52188;SDS011;38162;45.926;13.608;2022-12-18T12:46:42;12.90;;;9.27;;
52188;SDS011;38162;45.926;13.608;2022-12-18T12:49:16;12.23;;;8.40;;
52188;SDS011;38162;45.926;13.608;2022-12-18T12:51:44;10.60;;;8.33;;
52188;SDS011;38162;45.926;13.608;2022-12-18T12:54:14;12.50;;;8.60;;
52188;SDS011;38162;45.926;13.608;2022-12-18T13:04:08;12.87;;;8.70;;
52188;SDS011;38162;45.926;13.608;2022-12-18T13:09:04;12.60;;;8.87;;
52188;SDS011;38162;45.926;13.608;2022-12-18T13:11:38;12.17;;;9.07;;
52188;SDS011;38162;45.926;13.608;2022-12-18T13:14:27;12.37;;;8.33;;
52188;SDS011;38162;45.926;13.608;2022-12-18T13:19:38;12.37;;;8.53;;
52188;SDS011;38162;45.926;13.608;2022-12-18T13:22:12;14.03;;;8.87;;
52188;SDS011;38162;45.926;13.608;2022-12-18T13:24:46;12.40;;;8.70;;
52188;SDS011;38162;45.926;13.608;2022-12-18T13:29:57;13.70;;;8.47;;
52188;SDS011;38162;45.926;13.608;2022-12-18T13:32:24;13.60;;;9.33;;
52188;SDS011;38162;45.926;13.608;2022-12-18T13:37:41;15.63;;;10.10;;
52188;SDS011;38162;45.926;13.608;2022-12-18T13:42:52;12.67;;;9.47;;
52188;SDS011;38162;45.926;13.608;2022-12-18T13:45:39;12.93;;;9.33;;
52188;SDS011;38162;45.926;13.608;2022-12-18T13:48:13;13.23;;;9.10;;
52188;SDS011;38162;45.926;13.608;2022-12-18T13:50:40;13.53;;;8.83;;
52188;SDS011;38162;45.926;13.608;2022-12-18T13:53:06;12.37;;;9.47;;
52188;SDS011;38162;45.926;13.608;2022-12-18T13:55:32;11.63;;;8.33;;
52188;SDS011;38162;45.926;13.608;2022-12-18T13:58:05;12.87;;;9.20;;
52188;SDS011;38162;45.926;13.608;2022-12-18T14:00:31;13.25;;;9.68;;
52188;SDS011;38162;45.926;13.608;2022-12-18T14:02:58;12.93;;;9.57;;
52188;SDS011;38162;45.926;13.608;2022-12-18T14:05:25;16.10;;;9.67;;
52188;SDS011;38162;45.926;13.608;2022-12-18T14:07:52;13.60;;;9.30;;
52188;SDS011;38162;45.926;13.608;2022-12-18T14:10:18;15.43;;;9.80;;
52188;SDS011;38162;45.926;13.608;2022-12-18T14:12:46;14.60;;;9.73;;
52188;SDS011;38162;45.926;13.608;2022-12-18T14:18:13;12.80;;;9.27;;
52188;SDS011;38162;45.926;13.608;2022-12-18T14:20:43;12.97;;;9.30;;
52188;SDS011;38162;45.926;13.608;2022-12-18T14:25:54;13.90;;;9.63;;
52188;SDS011;38162;45.926;13.608;2022-12-18T14:28:20;13.50;;;9.27;;
52188;SDS011;38162;45.926;13.608;2022-12-18T14:30:50;13.63;;;9.60;;
52188;SDS011;38162;45.926;13.608;2022-12-18T14:36:03;14.53;;;9.97;;
52188;SDS011;38162;45.926;13.608;2022-12-18T14:38:33;14.03;;;9.37;;
52188;SDS011;38162;45.926;13.608;2022-12-18T14:41:00;15.10;;;10.23;;
52188;SDS011;38162;45.926;13.608;2022-12-18T14:43:27;14.00;;;10.37;;
52188;SDS011;38162;45.926;13.608;2022-12-18T14:45:53;13.23;;;9.60;;
52188;SDS011;38162;45.926;13.608;2022-12-18T14:48:21;15.10;;;10.20;;
52188;SDS011;38162;45.926;13.608;2022-12-18T14:50:55;15.27;;;11.43;;
52188;SDS011;38162;45.926;13.608;2022-12-18T14:53:44;12.27;;;8.87;;
52188;SDS011;38162;45.926;13.608;2022-12-18T14:56:33;14.27;;;10.40;;
52188;SDS011;38162;45.926;13.608;2022-12-18T14:59:01;15.40;;;10.10;;
52188;SDS011;38162;45.926;13.608;2022-12-18T15:04:01;14.40;;;10.20;;
52188;SDS011;38162;45.926;13.608;2022-12-18T15:08:57;17.27;;;11.67;;
52188;SDS011;38162;45.926;13.608;2022-12-18T15:17:02;15.30;;;10.23;;
52188;SDS011;38162;45.926;13.608;2022-12-18T15:19:36;15.53;;;10.63;;
52188;SDS011;38162;45.926;13.608;2022-12-18T15:22:03;16.03;;;11.03;;
52188;SDS011;38162;45.926;13.608;2022-12-18T15:24:30;17.80;;;10.57;;
52188;SDS011;38162;45.926;13.608;2022-12-18T15:26:57;15.97;;;10.53;;
52188;SDS011;38162;45.926;13.608;2022-12-18T15:29:23;16.80;;;11.00;;
52188;SDS011;38162;45.926;13.608;2022-12-18T15:31:58;14.93;;;11.07;;
52188;SDS011;38162;45.926;13.608;2022-12-18T15:34:24;16.53;;;10.63;;
52188;SDS011;38162;45.926;13.608;2022-12-18T15:36:51;14.80;;;10.10;;
52188;SDS011;38162;45.926;13.608;2022-12-18T15:39:17;17.10;;;11.13;;
52188;SDS011;38162;45.926;13.608;2022-12-18T15:41:43;17.77;;;11.80;;
52188;SDS011;38162;45.926;13.608;2022-12-18T15:44:29;18.03;;;12.50;;
52188;SDS011;38162;45.926;13.608;2022-12-18T15:46:55;19.37;;;12.30;;
52188;SDS011;38162;45.926;13.608;2022-12-18T15:49:21;23.63;;;15.50;;
52188;SDS011;38162;45.926;13.608;2022-12-18T15:51:49;21.37;;;14.63;;
52188;SDS011;38162;45.926;13.608;2022-12-18T15:54:16;19.63;;;13.50;;
52188;SDS011;38162;45.926;13.608;2022-12-18T15:57:02;17.17;;;11.33;;
52188;SDS011;38162;45.926;13.608;2022-12-18T15:59:47;18.47;;;12.17;;
52188;SDS011;38162;45.926;13.608;2022-12-18T16:02:14;15.70;;;10.67;;
52188;SDS011;38162;45.926;13.608;2022-12-18T16:04:41;17.50;;;12.03;;
52188;SDS011;38162;45.926;13.608;2022-12-18T16:07:08;17.43;;;12.20;;
52188;SDS011;38162;45.926;13.608;2022-12-18T16:09:34;15.30;;;11.13;;
52188;SDS011;38162;45.926;13.608;2022-12-18T16:12:01;17.07;;;11.97;;
52188;SDS011;38162;45.926;13.608;2022-12-18T16:14:28;17.63;;;11.73;;
52188;SDS011;38162;45.926;13.608;2022-12-18T16:16:55;16.60;;;11.77;;
52188;SDS011;38162;45.926;13.608;2022-12-18T16:19:22;17.20;;;12.07;;
52188;SDS011;38162;45.926;13.608;2022-12-18T16:21:49;16.27;;;11.60;;
52188;SDS011;38162;45.926;13.608;2022-12-18T16:24:16;17.93;;;12.30;;
52188;SDS011;38162;45.926;13.608;2022-12-18T16:26:43;20.90;;;14.43;;
52188;SDS011;38162;45.926;13.608;2022-12-18T16:29:09;19.53;;;12.50;;
52188;SDS011;38162;45.926;13.608;2022-12-18T16:31:36;18.67;;;12.07;;
52188;SDS011;38162;45.926;13.608;2022-12-18T16:36:37;18.27;;;13.10;;
52188;SDS011;38162;45.926;13.608;2022-12-18T16:39:03;17.50;;;12.77;;
52188;SDS011;38162;45.926;13.608;2022-12-18T16:41:30;17.97;;;12.47;;
52188;SDS011;38162;45.926;13.608;2022-12-18T16:43:56;18.67;;;12.57;;
52188;SDS011;38162;45.926;13.608;2022-12-18T16:46:22;20.47;;;13.47;;
52188;SDS011;38162;45.926;13.608;2022-12-18T16:48:48;17.00;;;11.73;;
52188;SDS011;38162;45.926;13.608;2022-12-18T16:51:15;17.87;;;12.37;;
52188;SDS011;38162;45.926;13.608;2022-12-18T16:53:41;18.43;;;12.43;;
52188;SDS011;38162;45.926;13.608;2022-12-18T16:56:07;17.17;;;11.57;;
52188;SDS011;38162;45.926;13.608;2022-12-18T16:58:33;17.93;;;12.73;;
52188;SDS011;38162;45.926;13.608;2022-12-18T17:00:59;17.40;;;12.77;;
52188;SDS011;38162;45.926;13.608;2022-12-18T17:03:25;18.63;;;13.20;;